Time;durP1;ratioP1;P1;durP2;ratioP2;P2;SDS_P1;SDS_P2;PMS_P1;PMS_P2;Temp;Humidity;BMP_temperature;BMP_pressure;BME280_temperature;BME280_humidity;BME280_pressure;Samples;Min_cycle;Max_cycle;Signal;HPM_P1;HPM_P2
2022/05/11 00:00:22;;;;;;;6.13;1.85;;;;;;;;;;5032838;28;91764;-76
2022/05/11 00:02:48;;;;;;;6.38;2.00;;;;;;;;;;5032868;28;93095;-75
2022/05/11 00:05:15;;;;;;;6.45;2.20;;;;;;;;;;5031591;28;93686;-75
2022/05/11 00:07:41;;;;;;;7.75;2.28;;;;;;;;;;5030774;28;95018;-76
2022/05/11 00:10:12;;;;;;;5.85;2.22;;;;;;;;;;5035503;28;96311;-75
2022/05/11 00:12:39;;;;;;;7.25;2.35;;;;;;;;;;5032307;28;93530;-76
2022/05/11 00:15:06;;;;;;;5.72;1.95;;;;;;;;;;5032636;28;93861;-75
2022/05/11 00:17:33;;;;;;;5.28;2.08;;;;;;;;;;5031530;28;93904;-75
2022/05/11 00:20:00;;;;;;;8.07;2.38;;;;;;;;;;5032669;28;92897;-75
2022/05/11 00:22:26;;;;;;;6.72;2.38;;;;;;;;;;5032449;28;93687;-75
2022/05/11 00:24:53;;;;;;;7.75;2.25;;;;;;;;;;5031410;27;94900;-75
2022/05/11 00:27:19;;;;;;;6.72;2.47;;;;;;;;;;5031553;28;92497;-76
2022/05/11 00:29:45;;;;;;;4.25;2.03;;;;;;;;;;5032315;28;94123;-75
2022/05/11 00:32:12;;;;;;;9.18;2.75;;;;;;;;;;5033099;28;95807;-75
2022/05/11 00:34:38;;;;;;;10.25;2.50;;;;;;;;;;5032124;28;96310;-76
2022/05/11 00:37:04;;;;;;;7.18;2.28;;;;;;;;;;5032140;28;94404;-75
2022/05/11 00:39:33;;;;;;;4.68;2.53;;;;;;;;;;5031589;28;92922;-75
2022/05/11 00:42:00;;;;;;;6.53;2.28;;;;;;;;;;5031829;28;93458;-75
2022/05/11 00:44:27;;;;;;;8.70;2.20;;;;;;;;;;5031886;28;94196;-75
2022/05/11 00:46:57;;;;;;;9.65;2.63;;;;;;;;;;5031635;27;92528;-75
2022/05/11 00:49:34;;;;;;;6.43;2.55;;;;;;;;;;5032505;28;93957;-75
2022/05/11 00:52:03;;;;;;;9.60;2.95;;;;;;;;;;5031959;28;94814;-75
2022/05/11 00:54:31;;;;;;;9.88;2.72;;;;;;;;;;5034216;28;93073;-76
2022/05/11 00:57:01;;;;;;;7.85;2.63;;;;;;;;;;5030148;28;96587;-76
2022/05/11 00:59:31;;;;;;;7.63;2.70;;;;;;;;;;5031037;28;92550;-75
2022/05/11 01:02:03;;;;;;;5.68;2.38;;;;;;;;;;5031881;28;94238;-75
2022/05/11 01:04:32;;;;;;;5.43;2.50;;;;;;;;;;5031717;28;94213;-76
2022/05/11 01:07:00;;;;;;;7.40;2.63;;;;;;;;;;5031467;28;92661;-74
2022/05/11 01:09:26;;;;;;;3.80;2.45;;;;;;;;;;5034272;28;93795;-74
2022/05/11 01:11:55;;;;;;;4.13;2.70;;;;;;;;;;5034858;27;93602;-74
2022/05/11 01:14:24;;;;;;;4.75;2.70;;;;;;;;;;5038017;28;91849;-74
2022/05/11 01:16:50;;;;;;;4.95;2.60;;;;;;;;;;5035137;28;94678;-74
2022/05/11 01:19:37;;;;;;;5.90;2.72;;;;;;;;;;5035073;28;92499;-75
2022/05/11 01:22:08;;;;;;;7.72;2.47;;;;;;;;;;5032572;28;95074;-75
2022/05/11 01:24:40;;;;;;;6.73;3.13;;;;;;;;;;5034968;28;94146;-75
2022/05/11 01:27:26;;;;;;;6.82;2.90;;;;;;;;;;5035074;28;92602;-74
2022/05/11 01:29:53;;;;;;;7.63;2.75;;;;;;;;;;5033900;27;93252;-75
2022/05/11 01:32:21;;;;;;;8.80;2.80;;;;;;;;;;5034598;28;94357;-74
2022/05/11 01:34:51;;;;;;;3.50;2.78;;;;;;;;;;5033856;28;92816;-74
2022/05/11 01:37:17;;;;;;;9.68;3.20;;;;;;;;;;5037653;28;93183;-74
2022/05/11 01:39:44;;;;;;;5.72;2.97;;;;;;;;;;5034918;27;92438;-74
2022/05/11 01:42:11;;;;;;;7.35;3.53;;;;;;;;;;5034434;28;93098;-74
2022/05/11 01:44:38;;;;;;;5.03;2.75;;;;;;;;;;5034466;28;94184;-74
2022/05/11 01:47:04;;;;;;;4.70;3.08;;;;;;;;;;5033063;28;94918;-74
2022/05/11 01:49:31;;;;;;;5.72;3.45;;;;;;;;;;5033893;27;96356;-74
2022/05/11 01:51:58;;;;;;;6.45;2.97;;;;;;;;;;5034626;28;94266;-74
2022/05/11 01:54:24;;;;;;;8.73;3.35;;;;;;;;;;5034482;28;92459;-74
2022/05/11 01:56:51;;;;;;;8.10;3.50;;;;;;;;;;5034094;28;93877;-74
2022/05/11 01:59:17;;;;;;;9.20;3.83;;;;;;;;;;5037496;28;94192;-75
2022/05/11 02:01:43;;;;;;;4.60;3.60;;;;;;;;;;5034443;28;94196;-74
2022/05/11 02:09:45;;;;;;;8.10;3.65;;;;;;;;;;5034366;28;93932;-74
2022/05/11 02:12:11;;;;;;;7.78;3.90;;;;;;;;;;5031993;28;97046;-74
2022/05/11 02:14:38;;;;;;;10.63;4.18;;;;;;;;;;5034307;28;92506;-75
2022/05/11 02:17:04;;;;;;;8.45;4.35;;;;;;;;;;5033789;28;93897;-74
2022/05/11 02:19:30;;;;;;;8.80;4.07;;;;;;;;;;5033053;28;94381;-74
2022/05/11 02:21:57;;;;;;;7.10;3.85;;;;;;;;;;5036898;28;92521;-74
2022/05/11 02:24:23;;;;;;;9.05;4.25;;;;;;;;;;5033273;28;94664;-74
2022/05/11 02:26:50;;;;;;;4.22;3.80;;;;;;;;;;5033624;27;92488;-74
2022/05/11 02:29:16;;;;;;;7.82;3.80;;;;;;;;;;5034464;28;93031;-74
2022/05/11 02:31:42;;;;;;;4.95;3.67;;;;;;;;;;5033111;28;93582;-75
2022/05/11 02:35:12;;;;;;;6.97;3.63;;;;;;;;;;5034267;28;92994;-74
2022/05/11 02:36:55;;;;;;;6.57;3.92;;;;;;;;;;5031908;28;94850;-74
2022/05/11 02:39:21;;;;;;;4.30;3.53;;;;;;;;;;5032817;27;94322;-74
2022/05/11 02:41:48;;;;;;;7.60;3.83;;;;;;;;;;5034029;27;92529;-74
2022/05/11 02:44:14;;;;;;;14.35;4.25;;;;;;;;;;5037004;28;94253;-74
2022/05/11 02:46:40;;;;;;;11.20;3.80;;;;;;;;;;5032815;28;92499;-74
2022/05/11 02:49:07;;;;;;;5.65;4.10;;;;;;;;;;5033793;28;93668;-75
2022/05/11 02:51:33;;;;;;;10.45;4.75;;;;;;;;;;5033349;28;94522;-75
2022/05/11 02:53:59;;;;;;;7.38;3.47;;;;;;;;;;5033811;28;91730;-75
2022/05/11 02:56:26;;;;;;;4.05;3.65;;;;;;;;;;5033905;28;93067;-75
2022/05/11 02:58:52;;;;;;;5.88;3.83;;;;;;;;;;5033493;28;93420;-75
2022/05/11 03:01:19;;;;;;;7.05;3.33;;;;;;;;;;5031742;28;95440;-75
2022/05/11 03:03:45;;;;;;;5.03;2.95;;;;;;;;;;5036493;28;96375;-75
2022/05/11 03:06:11;;;;;;;4.88;3.15;;;;;;;;;;5032438;28;93015;-75
2022/05/11 03:08:38;;;;;;;6.53;3.10;;;;;;;;;;5033212;28;92819;-75
2022/05/11 03:11:05;;;;;;;5.05;3.20;;;;;;;;;;5033121;27;92462;-75
2022/05/11 03:13:31;;;;;;;12.20;3.00;;;;;;;;;;5032297;28;93001;-74
2022/05/11 03:15:58;;;;;;;6.15;2.80;;;;;;;;;;5033271;28;93116;-75
2022/05/11 03:18:24;;;;;;;7.30;3.13;;;;;;;;;;5032477;28;92592;-75
2022/05/11 03:20:54;;;;;;;3.28;2.63;;;;;;;;;;5032477;28;93076;-75
2022/05/11 03:23:20;;;;;;;8.10;3.30;;;;;;;;;;5032593;28;93063;-74
2022/05/11 03:25:47;;;;;;;6.97;3.15;;;;;;;;;;5033706;28;96356;-75
2022/05/11 03:28:13;;;;;;;5.03;2.50;;;;;;;;;;5032308;28;95648;-75
2022/05/11 03:30:39;;;;;;;8.93;3.20;;;;;;;;;;5031924;27;93833;-74
2022/05/11 03:35:50;;;;;;;6.10;3.20;;;;;;;;;;5032547;28;93970;-75
2022/05/11 03:38:17;;;;;;;9.45;2.78;;;;;;;;;;5033271;28;94661;-75
2022/05/11 03:40:43;;;;;;;5.40;2.70;;;;;;;;;;5032407;27;92497;-75
2022/05/11 03:43:10;;;;;;;4.68;2.75;;;;;;;;;;5032985;27;93940;-74
2022/05/11 03:45:36;;;;;;;5.28;2.33;;;;;;;;;;5032485;28;94205;-74
2022/05/11 03:48:02;;;;;;;4.07;2.67;;;;;;;;;;5035935;28;92443;-74
2022/05/11 03:50:29;;;;;;;6.38;2.83;;;;;;;;;;5029952;28;95806;-74
2022/05/11 03:52:56;;;;;;;8.45;3.00;;;;;;;;;;5032905;28;92448;-75
2022/05/11 03:55:23;;;;;;;5.18;2.78;;;;;;;;;;5031973;28;93847;-74
2022/05/11 03:57:50;;;;;;;5.13;3.17;;;;;;;;;;5032518;28;93999;-75
2022/05/11 04:00:20;;;;;;;6.13;3.00;;;;;;;;;;5031678;28;92458;-74
2022/05/11 04:02:47;;;;;;;4.90;2.78;;;;;;;;;;5032038;28;93845;-74
2022/05/11 04:05:14;;;;;;;5.43;3.00;;;;;;;;;;5032269;27;94132;-74
2022/05/11 04:07:40;;;;;;;6.93;2.60;;;;;;;;;;5032698;28;91774;-75
2022/05/11 04:10:08;;;;;;;5.80;2.72;;;;;;;;;;5034915;28;93223;-75
2022/05/11 04:12:34;;;;;;;7.00;2.78;;;;;;;;;;5032320;28;92544;-75
2022/05/11 04:15:01;;;;;;;4.25;2.67;;;;;;;;;;5030756;28;94918;-75
2022/05/11 04:17:27;;;;;;;3.13;2.40;;;;;;;;;;5031171;28;93805;-75
2022/05/11 04:19:53;;;;;;;4.00;2.20;;;;;;;;;;5032495;28;92948;-75
2022/05/11 04:22:19;;;;;;;4.82;2.42;;;;;;;;;;5032470;28;93873;-75
2022/05/11 04:24:46;;;;;;;6.60;2.35;;;;;;;;;;5031486;28;95086;-75
2022/05/11 04:27:13;;;;;;;4.10;2.13;;;;;;;;;;5032089;28;92486;-75
2022/05/11 04:29:39;;;;;;;6.72;2.20;;;;;;;;;;5032014;28;92824;-75
2022/05/11 04:32:07;;;;;;;13.40;2.42;;;;;;;;;;5034846;28;93068;-75
2022/05/11 04:34:37;;;;;;;6.50;2.40;;;;;;;;;;5032230;28;93782;-75
2022/05/11 04:37:03;;;;;;;11.00;1.95;;;;;;;;;;5032212;28;94070;-75
2022/05/11 04:39:30;;;;;;;5.30;2.50;;;;;;;;;;5029697;28;94861;-75
2022/05/11 04:41:56;;;;;;;5.72;2.45;;;;;;;;;;5031451;28;95415;-75
2022/05/11 04:44:23;;;;;;;4.00;1.88;;;;;;;;;;5033295;27;93608;-75
2022/05/11 04:46:49;;;;;;;4.65;2.20;;;;;;;;;;5034811;28;92518;-75
2022/05/11 04:49:16;;;;;;;4.10;2.47;;;;;;;;;;5035505;28;93771;-75
2022/05/11 04:51:43;;;;;;;4.60;2.10;;;;;;;;;;5034117;28;92497;-74
2022/05/11 04:54:11;;;;;;;7.78;2.00;;;;;;;;;;5038496;28;92441;-74
2022/05/11 04:56:40;;;;;;;3.95;2.35;;;;;;;;;;5035317;28;93833;-74
2022/05/11 04:59:07;;;;;;;6.22;2.25;;;;;;;;;;5034477;28;92595;-75
2022/05/11 05:01:34;;;;;;;6.38;2.10;;;;;;;;;;5034764;28;93394;-74
2022/05/11 05:04:01;;;;;;;4.45;1.90;;;;;;;;;;5033643;28;96567;-75
2022/05/11 05:06:32;;;;;;;3.33;2.15;;;;;;;;;;5034356;28;92505;-74
2022/05/11 05:09:02;;;;;;;2.67;2.00;;;;;;;;;;5035177;28;93880;-75
2022/05/11 05:11:28;;;;;;;7.20;2.42;;;;;;;;;;5034857;28;94454;-74
2022/05/11 05:13:55;;;;;;;10.70;2.35;;;;;;;;;;5036798;28;92636;-74
2022/05/11 05:16:21;;;;;;;9.23;2.25;;;;;;;;;;5034748;28;94139;-75
2022/05/11 05:18:48;;;;;;;2.05;1.75;;;;;;;;;;5034604;28;92463;-75
2022/05/11 05:21:14;;;;;;;7.43;2.30;;;;;;;;;;5034833;28;93925;-75
2022/05/11 05:23:40;;;;;;;4.22;1.80;;;;;;;;;;5034011;28;93928;-74
2022/05/11 05:26:07;;;;;;;8.85;1.95;;;;;;;;;;5034452;28;93292;-75
2022/05/11 05:31:21;;;;;;;8.98;1.95;;;;;;;;;;5034842;28;94389;-76
2022/05/11 05:33:49;;;;;;;4.55;1.98;;;;;;;;;;5033973;28;92465;-76
2022/05/11 05:36:15;;;;;;;7.57;2.10;;;;;;;;;;5037017;28;93831;-76
2022/05/11 05:38:42;;;;;;;8.23;2.25;;;;;;;;;;5033996;28;92902;-76
2022/05/11 05:41:09;;;;;;;9.50;2.08;;;;;;;;;;5033589;28;93782;-76
2022/05/11 05:43:36;;;;;;;5.28;1.70;;;;;;;;;;5034277;28;94516;-76
2022/05/11 05:46:03;;;;;;;3.85;2.20;;;;;;;;;;5034958;28;91722;-76
2022/05/11 05:48:29;;;;;;;4.70;1.77;;;;;;;;;;5033958;28;93314;-76
2022/05/11 05:51:03;;;;;;;6.40;1.70;;;;;;;;;;5034456;28;94209;-76
2022/05/11 05:53:29;;;;;;;4.22;1.88;;;;;;;;;;5032908;28;95217;-76
2022/05/11 05:55:56;;;;;;;5.25;2.00;;;;;;;;;;5033814;27;96255;-76
2022/05/11 05:58:22;;;;;;;5.07;1.70;;;;;;;;;;5036978;28;93421;-76
2022/05/11 06:00:48;;;;;;;4.93;1.88;;;;;;;;;;5034398;27;92960;-76
2022/05/11 06:03:18;;;;;;;8.25;1.98;;;;;;;;;;5033313;28;93274;-76
2022/05/11 06:05:45;;;;;;;5.47;1.60;;;;;;;;;;5033507;28;92590;-76
2022/05/11 06:08:15;;;;;;;7.90;2.25;;;;;;;;;;5034648;28;93932;-76
2022/05/11 06:10:44;;;;;;;10.23;1.60;;;;;;;;;;5033769;28;93125;-76
2022/05/11 06:13:12;;;;;;;5.85;1.92;;;;;;;;;;5034424;28;92722;-76
2022/05/11 06:15:39;;;;;;;6.07;1.48;;;;;;;;;;5032872;28;93659;-76
2022/05/11 06:18:09;;;;;;;6.55;1.58;;;;;;;;;;5031820;28;96771;-76
2022/05/11 06:20:36;;;;;;;3.72;1.50;;;;;;;;;;5037136;27;92540;-76
2022/05/11 06:23:03;;;;;;;4.65;1.40;;;;;;;;;;5033907;28;94170;-77
2022/05/11 06:25:30;;;;;;;3.05;1.70;;;;;;;;;;5033409;27;92540;-76
2022/05/11 06:27:58;;;;;;;12.15;1.90;;;;;;;;;;5034150;28;94231;-76
2022/05/11 06:30:25;;;;;;;3.05;1.42;;;;;;;;;;5032330;27;93393;-76
2022/05/11 06:32:51;;;;;;;6.40;1.80;;;;;;;;;;5033830;28;92470;-76
2022/05/11 06:35:18;;;;;;;4.22;1.75;;;;;;;;;;5034422;27;93845;-76
2022/05/11 06:37:44;;;;;;;8.02;1.42;;;;;;;;;;5032868;28;94165;-76
2022/05/11 06:40:12;;;;;;;4.10;1.40;;;;;;;;;;5033910;28;93152;-74
2022/05/11 06:42:39;;;;;;;6.82;1.50;;;;;;;;;;5034807;28;94883;-76
2022/05/11 06:45:06;;;;;;;4.72;1.83;;;;;;;;;;5032745;28;92728;-76
2022/05/11 06:47:33;;;;;;;9.30;2.58;;;;;;;;;;5033331;28;93934;-76
2022/05/11 06:49:59;;;;;;;3.50;1.38;;;;;;;;;;5033184;27;93470;-76
2022/05/11 06:52:26;;;;;;;5.55;1.52;;;;;;;;;;5032753;28;93634;-76
2022/05/11 07:00:27;;;;;;;5.20;1.80;;;;;;;;;;5033336;28;92168;-74
2022/05/11 07:02:53;;;;;;;5.68;1.70;;;;;;;;;;5033382;28;92941;-75
2022/05/11 07:05:19;;;;;;;12.90;1.88;;;;;;;;;;5035462;28;93775;-75
2022/05/11 07:07:46;;;;;;;4.88;1.50;;;;;;;;;;5031225;28;95120;-75
2022/05/11 07:10:12;;;;;;;5.45;1.90;;;;;;;;;;5033111;28;94259;-76
2022/05/11 07:12:45;;;;;;;5.65;1.55;;;;;;;;;;5031748;28;92855;-76
2022/05/11 07:15:13;;;;;;;3.67;1.60;;;;;;;;;;5033477;28;94489;-76
2022/05/11 07:17:46;;;;;;;9.30;2.95;;;;;;;;;;5032817;28;94188;-76
2022/05/11 07:20:14;;;;;;;6.13;2.85;;;;;;;;;;5032277;28;92487;-76
2022/05/11 07:22:41;;;;;;;8.23;1.60;;;;;;;;;;5032702;28;94130;-76
2022/05/11 07:25:12;;;;;;;4.25;1.83;;;;;;;;;;5036149;28;92540;-76
2022/05/11 07:27:38;;;;;;;11.23;2.13;;;;;;;;;;5032423;28;93194;-76
2022/05/11 07:30:06;;;;;;;5.03;1.63;;;;;;;;;;5032873;28;94015;-76
2022/05/11 07:32:34;;;;;;;6.80;1.80;;;;;;;;;;5031155;28;95240;-76
2022/05/11 07:35:00;;;;;;;9.30;2.03;;;;;;;;;;5032107;28;96661;-76
2022/05/11 07:37:26;;;;;;;6.40;1.58;;;;;;;;;;5032677;28;94176;-76
2022/05/11 07:39:55;;;;;;;6.22;1.95;;;;;;;;;;5032911;28;92721;-76
2022/05/11 07:42:21;;;;;;;7.72;2.17;;;;;;;;;;5031815;28;92869;-77
2022/05/11 07:44:48;;;;;;;9.95;2.10;;;;;;;;;;5032739;28;94123;-76
2022/05/11 07:47:14;;;;;;;8.88;1.52;;;;;;;;;;5035972;28;92444;-76
2022/05/11 07:49:41;;;;;;;5.88;1.70;;;;;;;;;;5032336;28;93591;-76
2022/05/11 07:52:08;;;;;;;8.32;1.40;;;;;;;;;;5032715;28;92499;-76
2022/05/11 07:54:34;;;;;;;7.25;1.38;;;;;;;;;;5031874;28;93815;-76
2022/05/11 07:59:59;;;;;;;8.55;1.60;;;;;;;;;;5032531;28;92450;-76
2022/05/11 08:02:29;;;;;;;5.50;1.80;;;;;;;;;;5031883;28;93915;-76
2022/05/11 08:04:59;;;;;;;5.35;1.58;;;;;;;;;;5032449;28;94342;-76
2022/05/11 08:07:45;;;;;;;3.40;1.40;;;;;;;;;;5032288;28;92462;-76
2022/05/11 08:10:13;;;;;;;2.47;1.63;;;;;;;;;;5034805;28;93313;-76
2022/05/11 08:12:40;;;;;;;9.32;1.55;;;;;;;;;;5032219;28;92439;-76
2022/05/11 08:15:06;;;;;;;8.23;1.60;;;;;;;;;;5033020;28;93929;-76
2022/05/11 08:17:34;;;;;;;4.60;1.25;;;;;;;;;;5030931;27;93411;-76
2022/05/11 08:20:02;;;;;;;3.85;1.45;;;;;;;;;;5035904;28;92422;-76
2022/05/11 08:22:28;;;;;;;3.65;1.58;;;;;;;;;;5034290;28;95437;-76
2022/05/11 08:24:56;;;;;;;2.33;1.10;;;;;;;;;;5034540;28;93740;-77
2022/05/11 08:27:26;;;;;;;4.13;1.30;;;;;;;;;;5034767;27;92551;-76
2022/05/11 08:35:51;;;;;;;2.17;1.13;;;;;;;;;;5035676;28;93795;-76
2022/05/11 08:38:18;;;;;;;2.30;1.05;;;;;;;;;;5034979;28;94168;-77
2022/05/11 08:40:56;;;;;;;6.18;1.30;;;;;;;;;;5035917;28;91711;-77
2022/05/11 08:43:23;;;;;;;2.35;1.30;;;;;;;;;;5035391;28;93048;-77
2022/05/11 08:45:49;;;;;;;8.93;1.33;;;;;;;;;;5034798;28;94133;-76
2022/05/11 08:48:35;;;;;;;5.75;1.40;;;;;;;;;;5033646;28;94868;-76
2022/05/11 08:51:02;;;;;;;19.50;1.42;;;;;;;;;;5035169;28;96392;-77
2022/05/11 08:53:33;;;;;;;4.15;1.67;;;;;;;;;;5034528;28;93946;-77
2022/05/11 08:56:04;;;;;;;3.55;1.13;;;;;;;;;;5038761;28;92483;-76
2022/05/11 08:58:37;;;;;;;4.55;1.25;;;;;;;;;;5034541;28;94271;-76
2022/05/11 09:01:07;;;;;;;12.73;1.77;;;;;;;;;;5035445;28;92525;-76
2022/05/11 09:03:39;;;;;;;5.68;1.08;;;;;;;;;;5035152;28;94212;-76
2022/05/11 09:06:08;;;;;;;3.10;1.45;;;;;;;;;;5035135;28;93280;-76
2022/05/11 09:08:37;;;;;;;8.25;1.50;;;;;;;;;;5034809;28;92459;-76
2022/05/11 09:11:04;;;;;;;2.38;1.40;;;;;;;;;;5035228;28;93975;-76
2022/05/11 09:13:30;;;;;;;5.53;1.30;;;;;;;;;;5032460;28;96444;-76
2022/05/11 09:16:01;;;;;;;5.35;1.58;;;;;;;;;;5035279;28;92583;-76
2022/05/11 09:18:30;;;;;;;9.13;1.27;;;;;;;;;;5037853;28;94073;-75
2022/05/11 09:20:57;;;;;;;3.55;1.40;;;;;;;;;;5034140;28;92510;-76
2022/05/11 09:23:29;;;;;;;10.55;1.50;;;;;;;;;;5034550;28;93836;-76
2022/05/11 09:25:59;;;;;;;4.40;1.75;;;;;;;;;;5034090;28;94366;-76
2022/05/11 09:28:31;;;;;;;4.80;1.20;;;;;;;;;;5035051;28;93827;-76
2022/05/11 09:31:01;;;;;;;6.55;1.50;;;;;;;;;;5034670;28;92127;-76
2022/05/11 09:33:30;;;;;;;6.13;1.30;;;;;;;;;;5033530;28;93312;-76
2022/05/11 09:35:56;;;;;;;5.47;1.35;;;;;;;;;;5034802;27;92488;-76
2022/05/11 09:38:46;;;;;;;4.70;1.50;;;;;;;;;;5036025;28;94946;-76
2022/05/11 09:41:20;;;;;;;2.30;1.30;;;;;;;;;;5034088;28;92473;-76
2022/05/11 09:43:50;;;;;;;3.83;1.23;;;;;;;;;;5034504;28;94126;-75
2022/05/11 09:46:25;;;;;;;6.57;1.42;;;;;;;;;;5016123;28;94226;-76
2022/05/11 09:48:54;;;;;;;8.75;1.48;;;;;;;;;;5034043;28;92888;-76
2022/05/11 09:51:22;;;;;;;4.80;1.40;;;;;;;;;;5034451;28;93995;-76
2022/05/11 09:53:51;;;;;;;3.50;1.65;;;;;;;;;;5034298;28;94740;-76
2022/05/11 09:56:39;;;;;;;4.88;1.45;;;;;;;;;;5033343;28;91740;-76
2022/05/11 09:59:16;;;;;;;3.35;1.42;;;;;;;;;;5034144;28;93464;-76
2022/05/11 10:01:43;;;;;;;2.85;1.23;;;;;;;;;;5036158;28;94258;-76
2022/05/11 10:04:11;;;;;;;4.35;1.40;;;;;;;;;;5032997;28;94910;-76
2022/05/11 10:06:58;;;;;;;4.22;1.70;;;;;;;;;;5034004;28;94097;-75
2022/05/11 10:09:30;;;;;;;6.97;2.78;;;;;;;;;;5033563;28;92551;-76
2022/05/11 10:12:04;;;;;;;7.30;1.55;;;;;;;;;;5034246;28;93924;-76
2022/05/11 10:23:25;;;;;;;9.25;1.90;;;;;;;;;;5033733;28;92359;-76
2022/05/11 10:26:01;;;;;;;11.52;1.88;;;;;;;;;;5036470;28;92676;-75
2022/05/11 10:28:46;;;;;;;9.60;1.70;;;;;;;;;;5033493;28;94600;-75
2022/05/11 10:31:21;;;;;;;6.32;1.65;;;;;;;;;;5031717;28;94881;-76
2022/05/11 10:33:53;;;;;;;7.43;1.80;;;;;;;;;;5033938;28;96298;-76
2022/05/11 10:36:36;;;;;;;9.30;1.88;;;;;;;;;;5033132;28;94646;-76
2022/05/11 10:39:11;;;;;;;8.60;2.25;;;;;;;;;;5033395;28;92443;-75
2022/05/11 10:41:45;;;;;;;6.60;1.75;;;;;;;;;;5032727;27;93819;-75
2022/05/11 10:44:30;;;;;;;13.10;2.22;;;;;;;;;;5032936;28;94482;-75
2022/05/11 10:47:08;;;;;;;18.52;3.08;;;;;;;;;;5033182;28;92525;-75
2022/05/11 10:49:57;;;;;;;5.97;1.70;;;;;;;;;;5036479;28;93079;-76
2022/05/11 10:52:33;;;;;;;10.85;2.08;;;;;;;;;;5032538;28;92984;-76
2022/05/11 10:55:02;;;;;;;9.27;2.03;;;;;;;;;;5033150;28;93809;-75
2022/05/11 10:57:43;;;;;;;4.35;1.67;;;;;;;;;;5030450;28;96413;-75
2022/05/11 11:00:18;;;;;;;9.23;1.60;;;;;;;;;;5033478;28;92415;-76
2022/05/11 11:02:50;;;;;;;9.32;2.33;;;;;;;;;;5033149;28;94085;-75
2022/05/11 11:05:17;;;;;;;4.20;1.45;;;;;;;;;;5032356;28;94113;-75
2022/05/11 11:08:09;;;;;;;9.63;1.83;;;;;;;;;;5033084;28;92450;-75
2022/05/11 11:10:45;;;;;;;5.20;1.60;;;;;;;;;;5029056;28;94063;-74
2022/05/11 11:13:22;;;;;;;5.90;2.20;;;;;;;;;;5035578;28;94369;-75
2022/05/11 11:15:50;;;;;;;6.35;2.00;;;;;;;;;;5033438;28;94096;-75
2022/05/11 11:18:25;;;;;;;8.63;2.15;;;;;;;;;;5032957;28;94598;-75
2022/05/11 11:20:56;;;;;;;7.50;2.28;;;;;;;;;;5032896;28;92403;-74
2022/05/11 11:23:22;;;;;;;5.13;1.70;;;;;;;;;;5031246;28;95026;-75
2022/05/11 11:25:51;;;;;;;4.57;1.70;;;;;;;;;;5031438;27;94139;-74
2022/05/11 11:28:22;;;;;;;5.28;1.70;;;;;;;;;;5032664;28;92490;-75
2022/05/11 11:30:57;;;;;;;8.88;2.17;;;;;;;;;;5032972;28;94077;-74
2022/05/11 11:33:24;;;;;;;4.63;1.80;;;;;;;;;;5032016;28;94763;-75
2022/05/11 11:36:11;;;;;;;11.85;2.78;;;;;;;;;;5035921;28;93329;-74
2022/05/11 11:38:41;;;;;;;9.07;2.03;;;;;;;;;;5031849;28;96713;-75
2022/05/11 11:41:11;;;;;;;6.10;1.90;;;;;;;;;;5032617;28;92126;-75
2022/05/11 11:43:49;;;;;;;4.40;1.80;;;;;;;;;;5032496;28;93008;-74
2022/05/11 11:46:33;;;;;;;3.17;1.80;;;;;;;;;;5032908;28;93772;-74
2022/05/11 11:49:00;;;;;;;3.90;1.60;;;;;;;;;;5030454;28;95208;-74
2022/05/11 11:51:31;;;;;;;12.38;2.03;;;;;;;;;;5032244;28;95897;-74
2022/05/11 11:53:58;;;;;;;9.77;1.73;;;;;;;;;;5032304;28;94310;-74
2022/05/11 11:56:25;;;;;;;9.25;2.83;;;;;;;;;;5035587;28;92455;-74
2022/05/11 11:59:05;;;;;;;6.82;2.15;;;;;;;;;;5032538;28;94379;-74
2022/05/11 12:01:33;;;;;;;6.85;1.70;;;;;;;;;;5031666;28;92448;-74
2022/05/11 12:04:01;;;;;;;7.90;1.92;;;;;;;;;;5031827;28;92828;-75
2022/05/11 12:15:19;;;;;;;8.02;2.10;;;;;;;;;;5029576;28;95720;-75
2022/05/11 12:17:45;;;;;;;5.18;1.63;;;;;;;;;;5031026;28;92577;-75
2022/05/11 12:20:19;;;;;;;6.25;1.70;;;;;;;;;;5035322;27;92845;-75
2022/05/11 12:22:48;;;;;;;3.30;1.30;;;;;;;;;;5031638;28;92686;-74
2022/05/11 12:25:20;;;;;;;5.85;2.03;;;;;;;;;;5032192;27;94213;-74
2022/05/11 12:27:48;;;;;;;5.70;1.85;;;;;;;;;;5032272;28;94405;-74
2022/05/11 12:30:17;;;;;;;9.48;1.50;;;;;;;;;;5031120;28;92561;-74
2022/05/11 12:32:57;;;;;;;5.00;1.48;;;;;;;;;;5032406;28;93856;-74
2022/05/11 12:35:26;;;;;;;6.50;1.92;;;;;;;;;;5032048;28;94616;-75
2022/05/11 12:37:54;;;;;;;10.85;2.17;;;;;;;;;;5031256;28;92615;-75
2022/05/11 12:40:21;;;;;;;4.50;1.38;;;;;;;;;;5030524;28;94883;-75
2022/05/11 12:42:54;;;;;;;8.43;1.70;;;;;;;;;;5034630;27;93273;-75
2022/05/11 12:45:35;;;;;;;5.15;1.50;;;;;;;;;;5031748;28;93510;-75
2022/05/11 12:48:02;;;;;;;5.45;1.33;;;;;;;;;;5031863;28;94275;-75
2022/05/11 12:50:31;;;;;;;3.75;1.55;;;;;;;;;;5031445;28;92900;-74
2022/05/11 12:53:03;;;;;;;7.50;2.30;;;;;;;;;;5031950;28;94088;-75
2022/05/11 12:55:33;;;;;;;3.78;1.85;;;;;;;;;;5031546;28;94393;-75
2022/05/11 12:58:00;;;;;;;5.35;1.50;;;;;;;;;;5031295;28;91714;-74
2022/05/11 13:00:28;;;;;;;6.75;2.00;;;;;;;;;;5031572;28;93320;-74
2022/05/11 13:02:56;;;;;;;5.00;1.90;;;;;;;;;;5031813;28;94319;-74
2022/05/11 13:05:23;;;;;;;13.65;2.45;;;;;;;;;;5034846;28;94945;-75
2022/05/11 13:07:51;;;;;;;3.05;1.70;;;;;;;;;;5035253;28;94204;-75
2022/05/11 13:10:20;;;;;;;6.70;1.90;;;;;;;;;;5034823;28;92512;-75
2022/05/11 13:12:49;;;;;;;7.38;2.05;;;;;;;;;;5034263;28;92536;-75
2022/05/11 13:15:29;;;;;;;9.57;2.30;;;;;;;;;;5034947;28;94011;-75
2022/05/11 13:17:55;;;;;;;6.72;1.90;;;;;;;;;;5034705;28;92474;-74
2022/05/11 13:20:23;;;;;;;19.38;2.47;;;;;;;;;;5034184;28;94372;-75
2022/05/11 13:22:50;;;;;;;9.30;2.88;;;;;;;;;;5035144;28;93633;-75
2022/05/11 13:25:37;;;;;;;10.25;2.53;;;;;;;;;;5034027;28;92622;-75
2022/05/11 13:28:11;;;;;;;11.13;2.22;;;;;;;;;;5037861;28;94309;-74
2022/05/11 13:30:42;;;;;;;5.35;1.80;;;;;;;;;;5033293;28;94915;-74
2022/05/11 13:33:27;;;;;;;11.07;2.20;;;;;;;;;;5034184;28;95284;-74
2022/05/11 13:36:26;;;;;;;8.65;2.88;;;;;;;;;;5034716;28;94169;-74
2022/05/11 13:38:55;;;;;;;10.40;3.13;;;;;;;;;;4989696;28;92512;-75
2022/05/11 13:41:23;;;;;;;10.65;2.78;;;;;;;;;;5033651;28;93075;-74
2022/05/11 13:43:53;;;;;;;11.63;2.97;;;;;;;;;;5034764;28;94328;-74
2022/05/11 13:46:35;;;;;;;9.40;2.72;;;;;;;;;;5033853;28;92517;-75
2022/05/11 13:49:22;;;;;;;8.70;2.45;;;;;;;;;;5038052;28;93263;-75
2022/05/11 13:51:49;;;;;;;15.55;2.70;;;;;;;;;;5035024;28;92485;-75
2022/05/11 13:54:26;;;;;;;15.63;3.20;;;;;;;;;;5034133;28;93944;-75
2022/05/11 13:57:04;;;;;;;12.52;2.70;;;;;;;;;;5032932;28;96703;-75
2022/05/11 13:59:32;;;;;;;8.80;2.53;;;;;;;;;;5033722;28;92547;-75
2022/05/11 14:01:59;;;;;;;8.10;3.45;;;;;;;;;;5034122;27;94620;-75
2022/05/11 14:04:31;;;;;;;8.95;3.03;;;;;;;;;;5034160;28;94613;-74
2022/05/11 14:07:03;;;;;;;9.65;3.45;;;;;;;;;;5034026;28;92473;-75
2022/05/11 14:09:30;;;;;;;13.60;3.38;;;;;;;;;;5033475;28;93788;-75
2022/05/11 14:11:57;;;;;;;7.43;2.40;;;;;;;;;;5037124;28;93620;-76
2022/05/11 14:14:23;;;;;;;8.55;2.42;;;;;;;;;;5034157;28;93972;-76
2022/05/11 14:16:50;;;;;;;11.25;3.33;;;;;;;;;;5033939;27;93513;-77
2022/05/11 14:19:16;;;;;;;11.50;3.30;;;;;;;;;;5033827;28;92489;-77
2022/05/11 14:21:43;;;;;;;14.35;3.00;;;;;;;;;;5031539;28;94890;-77
2022/05/11 14:24:12;;;;;;;12.07;2.85;;;;;;;;;;5033561;28;93589;-77
2022/05/11 14:26:38;;;;;;;15.35;3.20;;;;;;;;;;5033484;27;92490;-77
2022/05/11 14:29:07;;;;;;;14.35;3.08;;;;;;;;;;5033832;28;94281;-77
2022/05/11 14:31:34;;;;;;;9.88;2.85;;;;;;;;;;5033599;28;93268;-77
2022/05/11 14:34:01;;;;;;;15.00;3.45;;;;;;;;;;5037027;28;92538;-77
2022/05/11 14:36:28;;;;;;;10.98;2.83;;;;;;;;;;5032901;28;94446;-75
2022/05/11 14:38:54;;;;;;;8.20;3.05;;;;;;;;;;5034772;28;91727;-75
2022/05/11 14:41:21;;;;;;;12.30;3.13;;;;;;;;;;5033975;28;93177;-75
2022/05/11 14:43:47;;;;;;;9.93;2.85;;;;;;;;;;5033102;27;94094;-75
2022/05/11 14:46:21;;;;;;;15.40;3.55;;;;;;;;;;5032078;28;95530;-75
2022/05/11 14:48:48;;;;;;;14.98;3.45;;;;;;;;;;5033561;28;96674;-75
2022/05/11 14:51:15;;;;;;;9.93;3.22;;;;;;;;;;5032945;28;93219;-75
2022/05/11 14:53:42;;;;;;;13.35;3.17;;;;;;;;;;5033353;28;92590;-75
2022/05/11 14:56:09;;;;;;;10.35;3.40;;;;;;;;;;5036586;28;94345;-74
2022/05/11 15:04:09;;;;;;;10.95;3.30;;;;;;;;;;5033269;28;93521;-78
2022/05/11 15:06:38;;;;;;;14.82;3.58;;;;;;;;;;5033341;28;92535;-74
2022/05/11 15:09:04;;;;;;;13.55;2.88;;;;;;;;;;5033227;28;94049;-74
2022/05/11 15:14:26;;;;;;;8.95;3.20;;;;;;;;;;5033216;28;92481;-75
2022/05/11 15:16:54;;;;;;;13.68;3.53;;;;;;;;;;5033453;28;92941;-75
2022/05/11 15:19:20;;;;;;;9.27;2.97;;;;;;;;;;5035613;27;94186;-75
2022/05/11 15:21:49;;;;;;;13.90;2.83;;;;;;;;;;5033419;28;93961;-75
2022/05/11 15:24:16;;;;;;;20.08;4.22;;;;;;;;;;5032715;28;93678;-75
2022/05/11 15:26:42;;;;;;;12.43;3.33;;;;;;;;;;5031381;28;93060;-75
2022/05/11 15:29:09;;;;;;;14.15;2.70;;;;;;;;;;5033104;28;94156;-75
2022/05/11 15:31:35;;;;;;;11.35;2.83;;;;;;;;;;5032833;28;94516;-75
2022/05/11 15:34:03;;;;;;;10.80;2.53;;;;;;;;;;5032473;28;92516;-75
2022/05/11 15:36:29;;;;;;;14.88;3.28;;;;;;;;;;5031295;27;95399;-76
2022/05/11 15:38:56;;;;;;;9.40;3.20;;;;;;;;;;5032470;28;94126;-75
2022/05/11 15:41:22;;;;;;;23.98;3.05;;;;;;;;;;5036114;28;93054;-75
2022/05/11 15:43:48;;;;;;;21.60;3.38;;;;;;;;;;5032868;28;94203;-75